sensor_id;sensor_type;location;lat;lon;timestamp;pressure;altitude;pressure_sealevel;temperature;humidity
17764;BME280;22245;52.832;13.816;2023-11-21T00:00:06;100700.84;;;6.84;94.80
17764;BME280;22245;52.832;13.816;2023-11-21T00:03:33;100693.84;;;6.83;94.96
17764;BME280;22245;52.832;13.816;2023-11-21T00:06:55;100698.06;;;6.85;94.37
17764;BME280;22245;52.832;13.816;2023-11-21T00:10:16;100698.81;;;6.74;94.27
17764;BME280;22245;52.832;13.816;2023-11-21T00:13:38;100711.09;;;6.75;94.30
17764;BME280;22245;52.832;13.816;2023-11-21T00:17:01;100708.97;;;6.80;93.60
17764;BME280;22245;52.832;13.816;2023-11-21T00:20:23;100704.63;;;6.79;94.53
17764;BME280;22245;52.832;13.816;2023-11-21T00:23:45;100708.38;;;6.77;94.06
17764;BME280;22245;52.832;13.816;2023-11-21T00:27:06;100710.88;;;6.78;93.93
17764;BME280;22245;52.832;13.816;2023-11-21T00:30:28;100712.56;;;6.79;93.82
17764;BME280;22245;52.832;13.816;2023-11-21T00:33:51;100718.81;;;6.78;94.14
17764;BME280;22245;52.832;13.816;2023-11-21T00:37:15;100714.69;;;6.74;93.64
17764;BME280;22245;52.832;13.816;2023-11-21T00:40:37;100711.44;;;6.71;92.99
17764;BME280;22245;52.832;13.816;2023-11-21T00:44:00;100728.88;;;6.73;93.05
17764;BME280;22245;52.832;13.816;2023-11-21T00:47:22;100727.19;;;6.72;92.93
17764;BME280;22245;52.832;13.816;2023-11-21T00:50:46;100732.41;;;6.74;92.68
17764;BME280;22245;52.832;13.816;2023-11-21T00:54:07;100737.47;;;6.77;92.70
17764;BME280;22245;52.832;13.816;2023-11-21T00:57:29;100725.94;;;6.78;92.50
17764;BME280;22245;52.832;13.816;2023-11-21T01:00:50;100726.75;;;6.78;92.64
17764;BME280;22245;52.832;13.816;2023-11-21T01:04:12;100731.53;;;6.73;91.71
17764;BME280;22245;52.832;13.816;2023-11-21T01:07:35;100734.41;;;6.70;91.38
17764;BME280;22245;52.832;13.816;2023-11-21T01:10:58;100736.53;;;6.65;91.63
17764;BME280;22245;52.832;13.816;2023-11-21T01:14:20;100747.84;;;6.67;91.32
17764;BME280;22245;52.832;13.816;2023-11-21T01:17:42;100759.09;;;6.71;91.59
17764;BME280;22245;52.832;13.816;2023-11-21T01:21:04;100761.00;;;6.69;90.90
17764;BME280;22245;52.832;13.816;2023-11-21T01:24:27;100768.28;;;6.65;89.89
17764;BME280;22245;52.832;13.816;2023-11-21T01:27:49;100767.44;;;6.64;90.59
17764;BME280;22245;52.832;13.816;2023-11-21T01:31:10;100774.75;;;6.61;90.42
17764;BME280;22245;52.832;13.816;2023-11-21T01:34:33;100776.66;;;6.59;90.34
17764;BME280;22245;52.832;13.816;2023-11-21T01:37:54;100772.19;;;6.59;90.32
17764;BME280;22245;52.832;13.816;2023-11-21T01:41:17;100770.16;;;6.50;90.34
17764;BME280;22245;52.832;13.816;2023-11-21T01:44:40;100768.25;;;6.52;90.31
17764;BME280;22245;52.832;13.816;2023-11-21T01:48:02;100759.38;;;6.53;89.89
17764;BME280;22245;52.832;13.816;2023-11-21T01:51:24;100771.44;;;6.57;90.12
17764;BME280;22245;52.832;13.816;2023-11-21T01:54:48;100776.84;;;6.56;89.72
17764;BME280;22245;52.832;13.816;2023-11-21T01:58:11;100777.28;;;6.49;89.75
17764;BME280;22245;52.832;13.816;2023-11-21T02:01:34;100781.47;;;6.39;89.74
17764;BME280;22245;52.832;13.816;2023-11-21T02:04:56;100783.50;;;6.48;90.22
17764;BME280;22245;52.832;13.816;2023-11-21T02:08:18;100785.28;;;6.35;89.18
17764;BME280;22245;52.832;13.816;2023-11-21T02:11:39;100788.56;;;6.39;89.45
17764;BME280;22245;52.832;13.816;2023-11-21T02:15:02;100785.19;;;6.36;89.41
17764;BME280;22245;52.832;13.816;2023-11-21T02:18:25;100795.66;;;6.38;89.19
17764;BME280;22245;52.832;13.816;2023-11-21T02:21:49;100784.84;;;6.41;88.29
17764;BME280;22245;52.832;13.816;2023-11-21T02:25:13;100785.06;;;6.38;88.86
17764;BME280;22245;52.832;13.816;2023-11-21T02:28:35;100788.78;;;6.35;89.11
17764;BME280;22245;52.832;13.816;2023-11-21T02:31:59;100796.81;;;6.34;88.61
17764;BME280;22245;52.832;13.816;2023-11-21T02:35:21;100804.13;;;6.30;87.68
17764;BME280;22245;52.832;13.816;2023-11-21T02:38:42;100806.09;;;6.27;87.82
17764;BME280;22245;52.832;13.816;2023-11-21T02:42:06;100807.56;;;6.18;86.81
17764;BME280;22245;52.832;13.816;2023-11-21T02:45:28;100810.59;;;6.12;87.38
17764;BME280;22245;52.832;13.816;2023-11-21T02:48:51;100807.31;;;6.08;87.77
17764;BME280;22245;52.832;13.816;2023-11-21T02:52:14;100803.91;;;6.06;88.30
17764;BME280;22245;52.832;13.816;2023-11-21T02:55:36;100805.63;;;6.07;88.60
17764;BME280;22245;52.832;13.816;2023-11-21T02:59:00;100811.84;;;6.06;88.47
17764;BME280;22245;52.832;13.816;2023-11-21T03:02:22;100821.66;;;6.04;88.02
17764;BME280;22245;52.832;13.816;2023-11-21T03:05:43;100818.28;;;6.02;88.25
17764;BME280;22245;52.832;13.816;2023-11-21T03:09:05;100825.44;;;6.00;87.31
17764;BME280;22245;52.832;13.816;2023-11-21T03:12:27;100827.16;;;6.01;86.83
17764;BME280;22245;52.832;13.816;2023-11-21T03:15:50;100829.34;;;5.94;86.49
17764;BME280;22245;52.832;13.816;2023-11-21T03:19:12;100834.16;;;5.87;86.43
17764;BME280;22245;52.832;13.816;2023-11-21T03:22:35;100835.78;;;5.90;86.29
17764;BME280;22245;52.832;13.816;2023-11-21T03:25:56;100828.97;;;5.86;86.60
17764;BME280;22245;52.832;13.816;2023-11-21T03:29:18;100835.78;;;5.90;86.52
17764;BME280;22245;52.832;13.816;2023-11-21T03:32:42;100839.44;;;5.87;87.13
17764;BME280;22245;52.832;13.816;2023-11-21T03:36:04;100836.81;;;5.87;87.10
17764;BME280;22245;52.832;13.816;2023-11-21T03:39:28;100848.53;;;5.83;87.07
17764;BME280;22245;52.832;13.816;2023-11-21T03:42:50;100840.41;;;5.86;87.15
17764;BME280;22245;52.832;13.816;2023-11-21T03:46:13;100852.69;;;5.73;87.54
17764;BME280;22245;52.832;13.816;2023-11-21T03:49:37;100855.16;;;5.76;87.44
17764;BME280;22245;52.832;13.816;2023-11-21T03:52:59;100857.59;;;5.79;87.57
17764;BME280;22245;52.832;13.816;2023-11-21T03:56:22;100854.19;;;5.77;87.57
17764;BME280;22245;52.832;13.816;2023-11-21T03:59:44;100860.72;;;5.71;87.59
17764;BME280;22245;52.832;13.816;2023-11-21T04:03:05;100857.50;;;5.66;87.52
17764;BME280;22245;52.832;13.816;2023-11-21T04:06:29;100866.78;;;5.59;88.11
17764;BME280;22245;52.832;13.816;2023-11-21T04:09:53;100868.00;;;5.53;87.65
17764;BME280;22245;52.832;13.816;2023-11-21T04:13:15;100874.91;;;5.56;87.92
17764;BME280;22245;52.832;13.816;2023-11-21T04:16:37;100881.69;;;5.60;87.79
17764;BME280;22245;52.832;13.816;2023-11-21T04:19:58;100882.72;;;5.57;87.93
17764;BME280;22245;52.832;13.816;2023-11-21T04:23:21;100890.75;;;5.56;88.10
17764;BME280;22245;52.832;13.816;2023-11-21T04:26:43;100887.34;;;5.54;88.27
17764;BME280;22245;52.832;13.816;2023-11-21T04:30:06;100888.56;;;5.48;88.53
17764;BME280;22245;52.832;13.816;2023-11-21T04:33:27;100894.97;;;5.44;88.57
17764;BME280;22245;52.832;13.816;2023-11-21T04:36:49;100897.81;;;5.41;88.56
17764;BME280;22245;52.832;13.816;2023-11-21T04:40:13;100904.78;;;5.42;88.88
17764;BME280;22245;52.832;13.816;2023-11-21T04:43:34;100909.88;;;5.45;89.23
17764;BME280;22245;52.832;13.816;2023-11-21T04:46:56;100917.63;;;5.48;89.07
17764;BME280;22245;52.832;13.816;2023-11-21T04:50:18;100916.75;;;5.47;89.36
17764;BME280;22245;52.832;13.816;2023-11-21T04:53:40;100918.47;;;5.48;89.30
17764;BME280;22245;52.832;13.816;2023-11-21T04:57:04;100924.34;;;5.54;89.38
17764;BME280;22245;52.832;13.816;2023-11-21T05:00:27;100928.13;;;5.49;89.86
17764;BME280;22245;52.832;13.816;2023-11-21T05:03:49;100935.94;;;5.51;88.38
17764;BME280;22245;52.832;13.816;2023-11-21T05:07:12;100936.38;;;5.43;88.28
17764;BME280;22245;52.832;13.816;2023-11-21T05:10:34;100951.47;;;5.41;88.05
17764;BME280;22245;52.832;13.816;2023-11-21T05:14:00;100943.47;;;5.43;88.09
17764;BME280;22245;52.832;13.816;2023-11-21T05:17:22;100954.03;;;5.43;88.23
17764;BME280;22245;52.832;13.816;2023-11-21T05:20:44;100961.03;;;5.44;88.01
17764;BME280;22245;52.832;13.816;2023-11-21T05:24:06;100963.09;;;5.39;87.83
17764;BME280;22245;52.832;13.816;2023-11-21T05:27:28;100964.78;;;5.40;87.86
17764;BME280;22245;52.832;13.816;2023-11-21T05:30:51;100964.78;;;5.40;87.75
17764;BME280;22245;52.832;13.816;2023-11-21T05:34:33;100970.84;;;5.42;87.42
17764;BME280;22245;52.832;13.816;2023-11-21T05:37:55;100973.16;;;5.32;87.62
17764;BME280;22245;52.832;13.816;2023-11-21T05:41:16;100976.47;;;5.35;87.84
17764;BME280;22245;52.832;13.816;2023-11-21T05:44:41;101003.22;;;5.29;87.72
17764;BME280;22245;52.832;13.816;2023-11-21T05:48:04;100997.19;;;5.27;87.79
17764;BME280;22245;52.832;13.816;2023-11-21T05:51:26;100985.81;;;5.27;87.68
17764;BME280;22245;52.832;13.816;2023-11-21T05:54:48;100994.09;;;5.20;87.18
17764;BME280;22245;52.832;13.816;2023-11-21T05:58:09;100999.22;;;5.07;87.40
17764;BME280;22245;52.832;13.816;2023-11-21T06:01:31;101007.50;;;5.01;87.61
17764;BME280;22245;52.832;13.816;2023-11-21T06:04:55;101012.03;;;4.99;87.93
17764;BME280;22245;52.832;13.816;2023-11-21T06:08:17;101014.84;;;4.96;87.68
17764;BME280;22245;52.832;13.816;2023-11-21T06:11:39;101021.06;;;4.95;87.70
17764;BME280;22245;52.832;13.816;2023-11-21T06:15:01;101022.75;;;4.96;87.64
17764;BME280;22245;52.832;13.816;2023-11-21T06:18:24;101029.06;;;4.93;87.33
17764;BME280;22245;52.832;13.816;2023-11-21T06:21:47;101035.19;;;4.94;87.26
17764;BME280;22245;52.832;13.816;2023-11-21T06:25:10;101046.41;;;4.98;87.37
17764;BME280;22245;52.832;13.816;2023-11-21T06:28:33;101044.47;;;5.01;88.30
17764;BME280;22245;52.832;13.816;2023-11-21T06:31:55;101055.44;;;5.10;88.03
17764;BME280;22245;52.832;13.816;2023-11-21T06:35:17;101064.72;;;5.01;86.82
17764;BME280;22245;52.832;13.816;2023-11-21T06:38:41;101063.13;;;4.98;87.45
17764;BME280;22245;52.832;13.816;2023-11-21T06:42:03;101073.09;;;4.93;87.54
17764;BME280;22245;52.832;13.816;2023-11-21T06:45:26;101083.38;;;4.98;87.72
17764;BME280;22245;52.832;13.816;2023-11-21T06:48:48;101084.31;;;4.97;87.42
17764;BME280;22245;52.832;13.816;2023-11-21T06:52:09;101086.44;;;4.90;88.05
17764;BME280;22245;52.832;13.816;2023-11-21T06:55:33;101087.38;;;4.89;88.43
17764;BME280;22245;52.832;13.816;2023-11-21T06:58:56;101091.88;;;4.87;88.10
17764;BME280;22245;52.832;13.816;2023-11-21T07:02:17;101100.50;;;4.74;89.02
17764;BME280;22245;52.832;13.816;2023-11-21T07:05:39;101095.03;;;4.77;89.83
17764;BME280;22245;52.832;13.816;2023-11-21T07:09:01;101100.25;;;4.79;89.37
17764;BME280;22245;52.832;13.816;2023-11-21T07:12:25;101112.03;;;4.72;90.02
17764;BME280;22245;52.832;13.816;2023-11-21T07:15:47;101111.22;;;4.71;89.98
17764;BME280;22245;52.832;13.816;2023-11-21T07:19:09;101108.66;;;4.70;90.21
17764;BME280;22245;52.832;13.816;2023-11-21T07:22:30;101106.78;;;4.72;90.11
17764;BME280;22245;52.832;13.816;2023-11-21T07:25:52;101108.41;;;4.74;89.89
17764;BME280;22245;52.832;13.816;2023-11-21T07:29:15;101103.13;;;4.74;89.46
17764;BME280;22245;52.832;13.816;2023-11-21T07:32:37;101113.91;;;4.70;89.60
17764;BME280;22245;52.832;13.816;2023-11-21T07:36:01;101120.91;;;4.71;89.96
17764;BME280;22245;52.832;13.816;2023-11-21T07:39:22;101137.34;;;4.76;90.28
17764;BME280;22245;52.832;13.816;2023-11-21T07:42:44;101131.38;;;4.72;90.25
17764;BME280;22245;52.832;13.816;2023-11-21T07:46:07;101131.56;;;4.69;89.96
17764;BME280;22245;52.832;13.816;2023-11-21T07:49:29;101142.50;;;4.61;89.88
17764;BME280;22245;52.832;13.816;2023-11-21T07:52:51;101140.47;;;4.67;89.40
17764;BME280;22245;52.832;13.816;2023-11-21T07:56:14;101142.50;;;4.61;89.73
17764;BME280;22245;52.832;13.816;2023-11-21T07:59:36;101157.50;;;4.61;89.29
17764;BME280;22245;52.832;13.816;2023-11-21T08:02:59;101156.97;;;4.54;89.35
17764;BME280;22245;52.832;13.816;2023-11-21T08:06:21;101172.25;;;4.47;89.70
17764;BME280;22245;52.832;13.816;2023-11-21T08:09:43;101181.81;;;4.50;89.49
17764;BME280;22245;52.832;13.816;2023-11-21T08:13:05;101177.53;;;4.47;89.83
17764;BME280;22245;52.832;13.816;2023-11-21T08:16:29;101178.56;;;4.45;89.67
17764;BME280;22245;52.832;13.816;2023-11-21T08:19:52;101178.56;;;4.45;88.81
17764;BME280;22245;52.832;13.816;2023-11-21T08:23:14;101178.47;;;4.46;88.76
17764;BME280;22245;52.832;13.816;2023-11-21T08:26:36;101189.63;;;4.52;88.50
17764;BME280;22245;52.832;13.816;2023-11-21T08:29:58;101188.94;;;4.48;88.21
17764;BME280;22245;52.832;13.816;2023-11-21T08:33:20;101178.25;;;4.51;88.08
17764;BME280;22245;52.832;13.816;2023-11-21T08:36:43;101179.72;;;4.57;87.90
17764;BME280;22245;52.832;13.816;2023-11-21T08:40:07;101187.34;;;4.61;88.16
17764;BME280;22245;52.832;13.816;2023-11-21T08:43:29;101193.00;;;4.71;87.38
17764;BME280;22245;52.832;13.816;2023-11-21T08:46:51;101206.91;;;4.75;86.44
17764;BME280;22245;52.832;13.816;2023-11-21T08:50:14;101210.47;;;4.74;86.20
17764;BME280;22245;52.832;13.816;2023-11-21T08:53:37;101220.50;;;4.67;85.35
17764;BME280;22245;52.832;13.816;2023-11-21T08:56:59;101216.53;;;4.58;86.05
17764;BME280;22245;52.832;13.816;2023-11-21T09:00:21;101218.25;;;4.59;86.19
17764;BME280;22245;52.832;13.816;2023-11-21T09:03:43;101235.88;;;4.59;85.83
17764;BME280;22245;52.832;13.816;2023-11-21T09:07:05;101232.91;;;4.65;86.48
17764;BME280;22245;52.832;13.816;2023-11-21T09:10:28;101243.47;;;4.65;86.09
17764;BME280;22245;52.832;13.816;2023-11-21T09:13:50;101250.78;;;4.60;86.53
17764;BME280;22245;52.832;13.816;2023-11-21T09:17:13;101251.38;;;4.65;86.05
17764;BME280;22245;52.832;13.816;2023-11-21T09:20:35;101253.91;;;4.67;85.80
17764;BME280;22245;52.832;13.816;2023-11-21T09:23:57;101264.25;;;4.71;85.31
17764;BME280;22245;52.832;13.816;2023-11-21T09:27:20;101263.47;;;4.69;85.36
17764;BME280;22245;52.832;13.816;2023-11-21T09:30:41;101262.72;;;4.67;84.95
17764;BME280;22245;52.832;13.816;2023-11-21T09:34:03;101265.34;;;4.67;85.43
17764;BME280;22245;52.832;13.816;2023-11-21T09:37:26;101274.97;;;4.68;85.03
17764;BME280;22245;52.832;13.816;2023-11-21T09:40:49;101277.84;;;4.63;85.28
17764;BME280;22245;52.832;13.816;2023-11-21T09:44:17;101283.81;;;4.67;86.08
17764;BME280;22245;52.832;13.816;2023-11-21T09:47:39;101291.03;;;4.81;88.64
17764;BME280;22245;52.832;13.816;2023-11-21T09:51:01;101293.34;;;4.87;87.17
17764;BME280;22245;52.832;13.816;2023-11-21T09:54:24;101292.47;;;4.87;85.36
17764;BME280;22245;52.832;13.816;2023-11-21T09:57:47;101300.09;;;4.75;85.51
17764;BME280;22245;52.832;13.816;2023-11-21T10:01:13;101306.38;;;4.73;85.71
17764;BME280;22245;52.832;13.816;2023-11-21T10:04:36;101308.50;;;4.66;86.24
17764;BME280;22245;52.832;13.816;2023-11-21T10:07:58;101303.28;;;4.64;86.78
17764;BME280;22245;52.832;13.816;2023-11-21T10:11:21;101311.69;;;4.55;85.93
17764;BME280;22245;52.832;13.816;2023-11-21T10:14:48;101304.63;;;4.56;86.64
17764;BME280;22245;52.832;13.816;2023-11-21T10:18:11;101317.66;;;4.59;86.58
17764;BME280;22245;52.832;13.816;2023-11-21T10:21:35;101317.66;;;4.59;85.76
17764;BME280;22245;52.832;13.816;2023-11-21T10:24:58;101318.13;;;4.67;85.38
17764;BME280;22245;52.832;13.816;2023-11-21T10:28:20;101317.84;;;4.72;84.54
17764;BME280;22245;52.832;13.816;2023-11-21T10:31:42;101336.25;;;4.73;85.14
17764;BME280;22245;52.832;13.816;2023-11-21T10:35:07;101318.88;;;4.69;84.84
17764;BME280;22245;52.832;13.816;2023-11-21T10:38:35;101322.63;;;4.65;85.26
17764;BME280;22245;52.832;13.816;2023-11-21T10:42:04;101325.78;;;4.72;85.18
17764;BME280;22245;52.832;13.816;2023-11-21T10:45:32;101330.84;;;4.76;85.04
17764;BME280;22245;52.832;13.816;2023-11-21T10:48:54;101337.66;;;4.81;85.25
17764;BME280;22245;52.832;13.816;2023-11-21T10:52:19;101343.09;;;4.77;85.13
17764;BME280;22245;52.832;13.816;2023-11-21T10:55:41;101348.38;;;4.77;85.42
17764;BME280;22245;52.832;13.816;2023-11-21T10:59:05;101351.78;;;4.80;85.24
17764;BME280;22245;52.832;13.816;2023-11-21T11:02:27;101340.69;;;4.73;86.28
17764;BME280;22245;52.832;13.816;2023-11-21T11:05:53;101355.53;;;4.58;86.63
17764;BME280;22245;52.832;13.816;2023-11-21T11:09:17;101347.78;;;4.55;87.27
17764;BME280;22245;52.832;13.816;2023-11-21T11:12:39;101360.03;;;4.56;87.79
17764;BME280;22245;52.832;13.816;2023-11-21T11:16:01;101358.44;;;4.52;87.94
17764;BME280;22245;52.832;13.816;2023-11-21T11:19:24;101363.41;;;4.40;88.84
17764;BME280;22245;52.832;13.816;2023-11-21T11:22:54;101361.91;;;4.34;88.92
17764;BME280;22245;52.832;13.816;2023-11-21T11:26:32;101373.63;;;4.29;88.62
17764;BME280;22245;52.832;13.816;2023-11-21T11:30:06;101379.38;;;4.19;89.05
17764;BME280;22245;52.832;13.816;2023-11-21T11:33:39;101377.50;;;4.22;89.38
17764;BME280;22245;52.832;13.816;2023-11-21T11:37:05;101385.56;;;4.18;89.36
17764;BME280;22245;52.832;13.816;2023-11-21T11:40:38;101391.53;;;4.22;89.82
17764;BME280;22245;52.832;13.816;2023-11-21T11:44:02;101396.03;;;4.20;90.31
17764;BME280;22245;52.832;13.816;2023-11-21T11:47:26;101397.72;;;4.21;90.34
17764;BME280;22245;52.832;13.816;2023-11-21T11:51:05;101418.75;;;4.23;89.79
17764;BME280;22245;52.832;13.816;2023-11-21T11:54:34;101421.97;;;4.10;89.45
17764;BME280;22245;52.832;13.816;2023-11-21T11:57:58;101421.97;;;4.10;90.29
17764;BME280;22245;52.832;13.816;2023-11-21T12:01:23;101442.25;;;4.08;90.60
17764;BME280;22245;52.832;13.816;2023-11-21T12:04:45;101437.09;;;3.87;90.94
17764;BME280;22245;52.832;13.816;2023-11-21T12:08:07;101447.63;;;3.87;90.87
17764;BME280;22245;52.832;13.816;2023-11-21T12:11:30;101449.19;;;3.91;90.55
17764;BME280;22245;52.832;13.816;2023-11-21T12:14:53;101453.09;;;3.83;90.38
17764;BME280;22245;52.832;13.816;2023-11-21T12:18:16;101452.16;;;3.84;90.22
17764;BME280;22245;52.832;13.816;2023-11-21T12:21:39;101458.56;;;3.78;89.17
17764;BME280;22245;52.832;13.816;2023-11-21T12:25:01;101460.50;;;3.74;89.63
17764;BME280;22245;52.832;13.816;2023-11-21T12:28:23;101468.44;;;3.73;88.98
17764;BME280;22245;52.832;13.816;2023-11-21T12:31:45;101474.78;;;3.69;88.69
17764;BME280;22245;52.832;13.816;2023-11-21T12:35:10;101477.41;;;3.69;88.69
17764;BME280;22245;52.832;13.816;2023-11-21T12:38:33;101493.38;;;3.66;88.97
17764;BME280;22245;52.832;13.816;2023-11-21T12:41:55;101489.75;;;3.68;88.10
17764;BME280;22245;52.832;13.816;2023-11-21T12:45:21;101492.84;;;3.57;88.09
17764;BME280;22245;52.832;13.816;2023-11-21T12:48:46;101485.88;;;3.56;88.19
17764;BME280;22245;52.832;13.816;2023-11-21T12:52:10;101499.69;;;3.61;88.08
17764;BME280;22245;52.832;13.816;2023-11-21T12:55:33;101500.75;;;3.57;87.51
17764;BME280;22245;52.832;13.816;2023-11-21T12:58:58;101514.66;;;3.61;87.56
17764;BME280;22245;52.832;13.816;2023-11-21T13:02:20;101522.28;;;3.46;87.28
17764;BME280;22245;52.832;13.816;2023-11-21T13:05:43;101526.91;;;3.41;87.67
17764;BME280;22245;52.832;13.816;2023-11-21T13:09:10;101524.44;;;3.37;86.73
17764;BME280;22245;52.832;13.816;2023-11-21T13:12:32;101528.25;;;3.29;87.46
17764;BME280;22245;52.832;13.816;2023-11-21T13:15:56;101530.09;;;3.27;87.32
17764;BME280;22245;52.832;13.816;2023-11-21T13:19:21;101535.50;;;3.24;86.94
17764;BME280;22245;52.832;13.816;2023-11-21T13:22:46;101546.09;;;3.23;87.23
17764;BME280;22245;52.832;13.816;2023-11-21T13:26:10;101559.28;;;3.23;86.74
17764;BME280;22245;52.832;13.816;2023-11-21T13:29:33;101563.63;;;3.24;86.27
17764;BME280;22245;52.832;13.816;2023-11-21T13:32:55;101563.63;;;3.24;86.23
17764;BME280;22245;52.832;13.816;2023-11-21T13:36:22;101568.06;;;3.22;85.66
17764;BME280;22245;52.832;13.816;2023-11-21T13:39:44;101568.97;;;3.21;85.20
17764;BME280;22245;52.832;13.816;2023-11-21T13:43:13;101561.41;;;3.13;84.72
17764;BME280;22245;52.832;13.816;2023-11-21T13:46:35;101568.53;;;3.11;84.75
17764;BME280;22245;52.832;13.816;2023-11-21T13:49:58;101568.44;;;3.12;84.65
17764;BME280;22245;52.832;13.816;2023-11-21T13:53:21;101577.88;;;3.18;84.81
17764;BME280;22245;52.832;13.816;2023-11-21T13:56:43;101582.09;;;3.22;84.95
17764;BME280;22245;52.832;13.816;2023-11-21T14:00:10;101591.31;;;3.32;85.10
17764;BME280;22245;52.832;13.816;2023-11-21T14:03:52;101593.28;;;3.27;83.62
17764;BME280;22245;52.832;13.816;2023-11-21T14:07:18;101596.59;;;3.32;83.00
17764;BME280;22245;52.832;13.816;2023-11-21T14:10:51;101602.78;;;3.31;82.81
17764;BME280;22245;52.832;13.816;2023-11-21T14:14:18;101611.94;;;3.23;81.84
17764;BME280;22245;52.832;13.816;2023-11-21T14:17:41;101614.66;;;3.19;81.68
17764;BME280;22245;52.832;13.816;2023-11-21T14:21:03;101616.28;;;3.24;81.73
17764;BME280;22245;52.832;13.816;2023-11-21T14:24:26;101614.44;;;3.26;81.24
17764;BME280;22245;52.832;13.816;2023-11-21T14:27:51;101612.47;;;3.31;80.79
17764;BME280;22245;52.832;13.816;2023-11-21T14:31:13;101621.03;;;3.36;80.88
17764;BME280;22245;52.832;13.816;2023-11-21T14:34:39;101629.09;;;3.31;79.72
17764;BME280;22245;52.832;13.816;2023-11-21T14:38:02;101646.63;;;3.32;80.74
17764;BME280;22245;52.832;13.816;2023-11-21T14:41:25;101640.75;;;3.26;80.72
17764;BME280;22245;52.832;13.816;2023-11-21T14:44:48;101649.44;;;3.28;81.09
17764;BME280;22245;52.832;13.816;2023-11-21T14:48:10;101651.16;;;3.29;80.83
17764;BME280;22245;52.832;13.816;2023-11-21T14:51:38;101660.16;;;3.23;80.36
17764;BME280;22245;52.832;13.816;2023-11-21T14:55:20;101668.41;;;3.14;80.68
17764;BME280;22245;52.832;13.816;2023-11-21T14:58:47;101679.88;;;3.13;79.89
17764;BME280;22245;52.832;13.816;2023-11-21T15:02:09;101685.13;;;3.13;80.46
17764;BME280;22245;52.832;13.816;2023-11-21T15:05:36;101689.53;;;3.12;79.68
17764;BME280;22245;52.832;13.816;2023-11-21T15:09:00;101701.97;;;3.09;79.36
17764;BME280;22245;52.832;13.816;2023-11-21T15:12:40;101697.03;;;2.99;78.92
17764;BME280;22245;52.832;13.816;2023-11-21T15:16:03;101705.03;;;2.96;79.91
17764;BME280;22245;52.832;13.816;2023-11-21T15:19:28;101702.28;;;2.99;79.07
17764;BME280;22245;52.832;13.816;2023-11-21T15:22:52;101706.75;;;2.97;78.81
17764;BME280;22245;52.832;13.816;2023-11-21T15:26:17;101710.06;;;3.02;78.93
17764;BME280;22245;52.832;13.816;2023-11-21T15:29:40;101715.41;;;3.01;77.58
17764;BME280;22245;52.832;13.816;2023-11-21T15:33:02;101718.78;;;3.04;77.39
17764;BME280;22245;52.832;13.816;2023-11-21T15:36:24;101715.16;;;3.07;77.75
17764;BME280;22245;52.832;13.816;2023-11-21T15:39:47;101736.31;;;3.06;76.75
17764;BME280;22245;52.832;13.816;2023-11-21T15:43:10;101739.03;;;3.02;76.17
17764;BME280;22245;52.832;13.816;2023-11-21T15:46:33;101745.91;;;3.07;76.30
17764;BME280;22245;52.832;13.816;2023-11-21T15:49:56;101744.41;;;2.99;76.10
17764;BME280;22245;52.832;13.816;2023-11-21T15:53:18;101751.28;;;3.03;75.68
17764;BME280;22245;52.832;13.816;2023-11-21T15:56:40;101754.72;;;3.06;76.30
17764;BME280;22245;52.832;13.816;2023-11-21T16:00:05;101753.84;;;3.05;76.06
17764;BME280;22245;52.832;13.816;2023-11-21T16:03:36;101761.69;;;3.07;75.99
17764;BME280;22245;52.832;13.816;2023-11-21T16:06:58;101767.09;;;3.03;75.39
17764;BME280;22245;52.832;13.816;2023-11-21T16:10:21;101773.03;;;3.09;76.06
17764;BME280;22245;52.832;13.816;2023-11-21T16:13:44;101781.03;;;3.06;74.90
17764;BME280;22245;52.832;13.816;2023-11-21T16:17:08;101778.69;;;2.98;75.19
17764;BME280;22245;52.832;13.816;2023-11-21T16:20:30;101790.69;;;3.05;75.18
17764;BME280;22245;52.832;13.816;2023-11-21T16:23:52;101798.75;;;3.00;74.18
17764;BME280;22245;52.832;13.816;2023-11-21T16:27:14;101798.72;;;3.02;74.38
17764;BME280;22245;52.832;13.816;2023-11-21T16:30:37;101804.00;;;3.00;74.59
17764;BME280;22245;52.832;13.816;2023-11-21T16:34:00;101811.00;;;3.01;75.03
17764;BME280;22245;52.832;13.816;2023-11-21T16:37:27;101823.47;;;2.96;75.56
17764;BME280;22245;52.832;13.816;2023-11-21T16:40:50;101829.53;;;2.98;74.94
17764;BME280;22245;52.832;13.816;2023-11-21T16:44:14;101830.56;;;2.94;75.26
17764;BME280;22245;52.832;13.816;2023-11-21T16:47:37;101829.81;;;2.91;75.72
17764;BME280;22245;52.832;13.816;2023-11-21T16:51:01;101838.88;;;2.82;75.37
17764;BME280;22245;52.832;13.816;2023-11-21T16:54:23;101839.81;;;2.81;75.91
17764;BME280;22245;52.832;13.816;2023-11-21T16:57:45;101850.59;;;2.73;76.52
17764;BME280;22245;52.832;13.816;2023-11-21T17:01:06;101856.06;;;2.67;76.38
17764;BME280;22245;52.832;13.816;2023-11-21T17:04:28;101848.28;;;2.64;76.94
17764;BME280;22245;52.832;13.816;2023-11-21T17:07:51;101859.75;;;2.61;77.35
17764;BME280;22245;52.832;13.816;2023-11-21T17:11:13;101866.94;;;2.56;76.67
17764;BME280;22245;52.832;13.816;2023-11-21T17:14:35;101879.28;;;2.54;77.21
17764;BME280;22245;52.832;13.816;2023-11-21T17:17:59;101885.41;;;2.54;77.69
17764;BME280;22245;52.832;13.816;2023-11-21T17:21:23;101895.72;;;2.60;77.22
17764;BME280;22245;52.832;13.816;2023-11-21T17:24:54;101890.50;;;2.59;77.49
17764;BME280;22245;52.832;13.816;2023-11-21T17:28:18;101888.94;;;2.53;77.01
17764;BME280;22245;52.832;13.816;2023-11-21T17:31:40;101902.91;;;2.55;77.28
17764;BME280;22245;52.832;13.816;2023-11-21T17:35:02;101897.75;;;2.52;77.02
17764;BME280;22245;52.832;13.816;2023-11-21T17:38:24;101909.13;;;2.53;77.07
17764;BME280;22245;52.832;13.816;2023-11-21T17:41:47;101927.59;;;2.51;77.16